sensor_id;sensor_type;location;lat;lon;timestamp;P1;durP1;ratioP1;P2;durP2;ratioP2
42144;SDS011;27813;43.516;11.890;2023-05-16T04:34:46;0.20;;;0.20;;
42144;SDS011;27813;43.516;11.890;2023-05-16T04:38:52;0.00;;;0.00;;
42144;SDS011;27813;43.516;11.890;2023-05-16T04:42:56;0.65;;;0.25;;
42144;SDS011;27813;43.516;11.890;2023-05-16T04:47:01;0.10;;;0.10;;
42144;SDS011;27813;43.516;11.890;2023-05-16T04:51:05;0.28;;;0.17;;
42144;SDS011;27813;43.516;11.890;2023-05-16T04:59:13;0.20;;;0.20;;
42144;SDS011;27813;43.516;11.890;2023-05-16T05:03:17;0.10;;;0.10;;
42144;SDS011;27813;43.516;11.890;2023-05-16T05:11:36;0.22;;;0.13;;
42144;SDS011;27813;43.516;11.890;2023-05-16T05:15:41;0.47;;;0.30;;
42144;SDS011;27813;43.516;11.890;2023-05-16T05:19:45;0.20;;;0.20;;
42144;SDS011;27813;43.516;11.890;2023-05-16T05:23:50;0.30;;;0.22;;
42144;SDS011;27813;43.516;11.890;2023-05-16T05:31:58;1.53;;;0.30;;
42144;SDS011;27813;43.516;11.890;2023-05-16T05:36:03;0.32;;;0.30;;
42144;SDS011;27813;43.516;11.890;2023-05-16T05:40:11;0.50;;;0.30;;
42144;SDS011;27813;43.516;11.890;2023-05-16T05:48:19;0.50;;;0.20;;
42144;SDS011;27813;43.516;11.890;2023-05-16T05:52:24;1.05;;;0.20;;
42144;SDS011;27813;43.516;11.890;2023-05-16T05:56:30;2.38;;;0.40;;
42144;SDS011;27813;43.516;11.890;2023-05-16T06:00:34;2.38;;;1.35;;
42144;SDS011;27813;43.516;11.890;2023-05-16T06:04:38;0.20;;;0.20;;
42144;SDS011;27813;43.516;11.890;2023-05-16T06:08:45;1.73;;;0.28;;
42144;SDS011;27813;43.516;11.890;2023-05-16T06:12:49;0.22;;;0.20;;
42144;SDS011;27813;43.516;11.890;2023-05-16T06:16:53;2.33;;;0.47;;
42144;SDS011;27813;43.516;11.890;2023-05-16T06:20:57;0.47;;;0.40;;
42144;SDS011;27813;43.516;11.890;2023-05-16T06:29:05;0.20;;;0.20;;
42144;SDS011;27813;43.516;11.890;2023-05-16T06:33:09;2.40;;;0.30;;
42144;SDS011;27813;43.516;11.890;2023-05-16T06:41:18;2.60;;;0.30;;
42144;SDS011;27813;43.516;11.890;2023-05-16T06:45:22;1.42;;;0.40;;
42144;SDS011;27813;43.516;11.890;2023-05-16T06:49:29;2.40;;;0.30;;
42144;SDS011;27813;43.516;11.890;2023-05-16T06:57:41;0.73;;;0.40;;
42144;SDS011;27813;43.516;11.890;2023-05-16T07:01:46;0.88;;;0.20;;
42144;SDS011;27813;43.516;11.890;2023-05-16T07:05:54;1.85;;;0.40;;
42144;SDS011;27813;43.516;11.890;2023-05-16T07:10:00;6.50;;;0.60;;
42144;SDS011;27813;43.516;11.890;2023-05-16T07:14:05;2.85;;;0.40;;
42144;SDS011;27813;43.516;11.890;2023-05-16T07:18:10;1.00;;;0.43;;
42144;SDS011;27813;43.516;11.890;2023-05-16T07:22:15;8.57;;;0.68;;
42144;SDS011;27813;43.516;11.890;2023-05-16T07:26:21;5.03;;;0.55;;
42144;SDS011;27813;43.516;11.890;2023-05-16T07:30:26;4.05;;;0.30;;
42144;SDS011;27813;43.516;11.890;2023-05-16T07:38:34;1.43;;;0.50;;
42144;SDS011;27813;43.516;11.890;2023-05-16T07:42:39;1.88;;;0.30;;
42144;SDS011;27813;43.516;11.890;2023-05-16T07:46:46;5.43;;;0.55;;
42144;SDS011;27813;43.516;11.890;2023-05-16T07:50:51;5.55;;;0.50;;
42144;SDS011;27813;43.516;11.890;2023-05-16T07:54:57;1.23;;;0.22;;
42144;SDS011;27813;43.516;11.890;2023-05-16T08:03:07;5.38;;;0.38;;
42144;SDS011;27813;43.516;11.890;2023-05-16T08:07:12;1.52;;;0.38;;
42144;SDS011;27813;43.516;11.890;2023-05-16T08:15:21;3.95;;;0.40;;
42144;SDS011;27813;43.516;11.890;2023-05-16T08:23:30;4.25;;;0.50;;
42144;SDS011;27813;43.516;11.890;2023-05-16T08:27:38;3.90;;;0.63;;
42144;SDS011;27813;43.516;11.890;2023-05-16T08:31:46;4.25;;;0.52;;
42144;SDS011;27813;43.516;11.890;2023-05-16T08:35:51;23.65;;;1.45;;
42144;SDS011;27813;43.516;11.890;2023-05-16T08:43:59;15.55;;;1.10;;
42144;SDS011;27813;43.516;11.890;2023-05-16T08:52:12;8.10;;;0.80;;
42144;SDS011;27813;43.516;11.890;2023-05-16T08:56:21;8.77;;;1.92;;
42144;SDS011;27813;43.516;11.890;2023-05-16T09:00:26;7.55;;;2.38;;
42144;SDS011;27813;43.516;11.890;2023-05-16T09:04:31;4.57;;;1.85;;
42144;SDS011;27813;43.516;11.890;2023-05-16T09:08:35;3.53;;;0.95;;
42144;SDS011;27813;43.516;11.890;2023-05-16T09:16:44;3.40;;;0.60;;
42144;SDS011;27813;43.516;11.890;2023-05-16T09:21:14;2.08;;;0.70;;
42144;SDS011;27813;43.516;11.890;2023-05-16T09:25:19;5.28;;;0.93;;
42144;SDS011;27813;43.516;11.890;2023-05-16T09:29:28;6.63;;;1.35;;
42144;SDS011;27813;43.516;11.890;2023-05-16T09:33:32;1.27;;;0.70;;
42144;SDS011;27813;43.516;11.890;2023-05-16T09:41:40;4.55;;;1.00;;
42144;SDS011;27813;43.516;11.890;2023-05-16T09:45:45;2.45;;;0.90;;
42144;SDS011;27813;43.516;11.890;2023-05-16T09:49:51;2.58;;;0.75;;
42144;SDS011;27813;43.516;11.890;2023-05-16T09:53:57;2.35;;;0.80;;
42144;SDS011;27813;43.516;11.890;2023-05-16T09:58:02;1.40;;;0.60;;
42144;SDS011;27813;43.516;11.890;2023-05-16T10:06:10;0.60;;;0.50;;
42144;SDS011;27813;43.516;11.890;2023-05-16T10:10:16;0.70;;;0.52;;
42144;SDS011;27813;43.516;11.890;2023-05-16T10:14:22;0.63;;;0.35;;
42144;SDS011;27813;43.516;11.890;2023-05-16T10:18:29;0.55;;;0.32;;
42144;SDS011;27813;43.516;11.890;2023-05-16T10:22:34;1.45;;;0.75;;
42144;SDS011;27813;43.516;11.890;2023-05-16T10:26:40;1.80;;;0.82;;
42144;SDS011;27813;43.516;11.890;2023-05-16T10:30:46;1.10;;;0.57;;
42144;SDS011;27813;43.516;11.890;2023-05-16T10:34:50;0.95;;;0.50;;
42144;SDS011;27813;43.516;11.890;2023-05-16T10:38:56;1.13;;;0.60;;
42144;SDS011;27813;43.516;11.890;2023-05-16T10:43:01;1.20;;;0.60;;
42144;SDS011;27813;43.516;11.890;2023-05-16T10:47:10;2.80;;;1.02;;
42144;SDS011;27813;43.516;11.890;2023-05-16T10:55:25;0.47;;;0.30;;
42144;SDS011;27813;43.516;11.890;2023-05-16T10:59:30;0.75;;;0.45;;
42144;SDS011;27813;43.516;11.890;2023-05-16T11:08:07;3.58;;;0.73;;
42144;SDS011;27813;43.516;11.890;2023-05-16T11:12:11;1.00;;;0.60;;
42144;SDS011;27813;43.516;11.890;2023-05-16T11:16:25;3.75;;;0.65;;
42144;SDS011;27813;43.516;11.890;2023-05-16T11:20:32;4.45;;;2.03;;
42144;SDS011;27813;43.516;11.890;2023-05-16T11:24:38;1.23;;;1.05;;
42144;SDS011;27813;43.516;11.890;2023-05-16T11:28:51;1.40;;;0.57;;
42144;SDS011;27813;43.516;11.890;2023-05-16T11:32:57;1.38;;;0.60;;
42144;SDS011;27813;43.516;11.890;2023-05-16T11:37:02;9.15;;;2.60;;
42144;SDS011;27813;43.516;11.890;2023-05-16T11:41:07;1.20;;;0.70;;
42144;SDS011;27813;43.516;11.890;2023-05-16T11:45:15;4.35;;;0.80;;
42144;SDS011;27813;43.516;11.890;2023-05-16T11:49:21;1.60;;;0.90;;
42144;SDS011;27813;43.516;11.890;2023-05-16T11:53:26;2.30;;;0.85;;
42144;SDS011;27813;43.516;11.890;2023-05-16T11:57:31;0.70;;;0.50;;
42144;SDS011;27813;43.516;11.890;2023-05-16T12:01:39;4.05;;;0.75;;
42144;SDS011;27813;43.516;11.890;2023-05-16T12:05:53;1.67;;;0.70;;
42144;SDS011;27813;43.516;11.890;2023-05-16T12:10:08;1.38;;;0.60;;
42144;SDS011;27813;43.516;11.890;2023-05-16T12:14:13;0.55;;;0.40;;
42144;SDS011;27813;43.516;11.890;2023-05-16T12:18:18;1.00;;;0.63;;
42144;SDS011;27813;43.516;11.890;2023-05-16T12:22:24;0.80;;;0.50;;
42144;SDS011;27813;43.516;11.890;2023-05-16T12:26:31;1.30;;;0.80;;
42144;SDS011;27813;43.516;11.890;2023-05-16T12:30:39;2.42;;;1.27;;
42144;SDS011;27813;43.516;11.890;2023-05-16T12:34:49;1.38;;;0.70;;
42144;SDS011;27813;43.516;11.890;2023-05-16T12:38:58;1.40;;;0.60;;
42144;SDS011;27813;43.516;11.890;2023-05-16T12:43:15;0.70;;;0.50;;
42144;SDS011;27813;43.516;11.890;2023-05-16T12:47:22;1.33;;;0.70;;
42144;SDS011;27813;43.516;11.890;2023-05-16T12:51:28;1.10;;;0.60;;
42144;SDS011;27813;43.516;11.890;2023-05-16T12:55:38;3.22;;;1.15;;
42144;SDS011;27813;43.516;11.890;2023-05-16T12:59:42;0.68;;;0.55;;
42144;SDS011;27813;43.516;11.890;2023-05-16T13:03:46;1.90;;;1.00;;
42144;SDS011;27813;43.516;11.890;2023-05-16T13:07:51;1.33;;;0.70;;
42144;SDS011;27813;43.516;11.890;2023-05-16T13:11:55;1.17;;;0.70;;
42144;SDS011;27813;43.516;11.890;2023-05-16T13:16:00;1.48;;;0.80;;
42144;SDS011;27813;43.516;11.890;2023-05-16T13:20:05;0.68;;;0.43;;
42144;SDS011;27813;43.516;11.890;2023-05-16T13:24:18;1.52;;;0.43;;
42144;SDS011;27813;43.516;11.890;2023-05-16T13:28:27;2.65;;;0.55;;
42144;SDS011;27813;43.516;11.890;2023-05-16T13:32:36;1.92;;;0.60;;
42144;SDS011;27813;43.516;11.890;2023-05-16T13:36:43;0.73;;;0.40;;
42144;SDS011;27813;43.516;11.890;2023-05-16T13:40:57;0.63;;;0.60;;
42144;SDS011;27813;43.516;11.890;2023-05-16T13:45:04;1.33;;;0.65;;
42144;SDS011;27813;43.516;11.890;2023-05-16T13:49:11;1.70;;;0.60;;
42144;SDS011;27813;43.516;11.890;2023-05-16T13:53:16;0.50;;;0.30;;
42144;SDS011;27813;43.516;11.890;2023-05-16T13:57:20;0.20;;;0.20;;
42144;SDS011;27813;43.516;11.890;2023-05-16T14:01:25;1.13;;;0.50;;
42144;SDS011;27813;43.516;11.890;2023-05-16T14:05:30;0.77;;;0.60;;
42144;SDS011;27813;43.516;11.890;2023-05-16T14:09:34;0.70;;;0.50;;
42144;SDS011;27813;43.516;11.890;2023-05-16T14:13:41;0.88;;;0.47;;
42144;SDS011;27813;43.516;11.890;2023-05-16T14:17:45;4.97;;;0.63;;
42144;SDS011;27813;43.516;11.890;2023-05-16T14:21:49;1.15;;;0.63;;
42144;SDS011;27813;43.516;11.890;2023-05-16T14:25:54;1.25;;;0.88;;
42144;SDS011;27813;43.516;11.890;2023-05-16T14:29:58;0.63;;;0.50;;
42144;SDS011;27813;43.516;11.890;2023-05-16T14:34:05;1.05;;;0.63;;
42144;SDS011;27813;43.516;11.890;2023-05-16T14:38:09;2.30;;;0.90;;
42144;SDS011;27813;43.516;11.890;2023-05-16T14:42:13;2.78;;;1.25;;
42144;SDS011;27813;43.516;11.890;2023-05-16T14:46:20;2.72;;;1.20;;
42144;SDS011;27813;43.516;11.890;2023-05-16T14:50:24;1.98;;;1.05;;
42144;SDS011;27813;43.516;11.890;2023-05-16T14:54:29;1.77;;;0.90;;
42144;SDS011;27813;43.516;11.890;2023-05-16T14:58:33;3.33;;;1.33;;
42144;SDS011;27813;43.516;11.890;2023-05-16T15:02:37;2.85;;;1.50;;
42144;SDS011;27813;43.516;11.890;2023-05-16T15:06:41;2.20;;;1.00;;
42144;SDS011;27813;43.516;11.890;2023-05-16T15:14:49;2.60;;;1.58;;
42144;SDS011;27813;43.516;11.890;2023-05-16T15:18:54;3.05;;;1.15;;
42144;SDS011;27813;43.516;11.890;2023-05-16T15:22:58;1.77;;;0.90;;
42144;SDS011;27813;43.516;11.890;2023-05-16T15:27:03;2.58;;;1.00;;
42144;SDS011;27813;43.516;11.890;2023-05-16T15:31:07;3.50;;;1.42;;
42144;SDS011;27813;43.516;11.890;2023-05-16T15:35:12;3.03;;;1.25;;
42144;SDS011;27813;43.516;11.890;2023-05-16T15:39:19;3.38;;;1.77;;
42144;SDS011;27813;43.516;11.890;2023-05-16T15:43:23;4.43;;;2.08;;
42144;SDS011;27813;43.516;11.890;2023-05-16T15:47:28;2.92;;;1.95;;
42144;SDS011;27813;43.516;11.890;2023-05-16T15:51:32;4.90;;;2.10;;
42144;SDS011;27813;43.516;11.890;2023-05-16T15:55:36;3.90;;;2.38;;
42144;SDS011;27813;43.516;11.890;2023-05-16T15:59:45;1.80;;;1.00;;
42144;SDS011;27813;43.516;11.890;2023-05-16T16:03:50;3.38;;;1.20;;
42144;SDS011;27813;43.516;11.890;2023-05-16T16:07:57;2.40;;;1.73;;
42144;SDS011;27813;43.516;11.890;2023-05-16T16:12:02;6.60;;;2.38;;
42144;SDS011;27813;43.516;11.890;2023-05-16T16:16:08;1.75;;;1.00;;
42144;SDS011;27813;43.516;11.890;2023-05-16T16:20:21;2.80;;;2.10;;
42144;SDS011;27813;43.516;11.890;2023-05-16T16:24:26;2.70;;;1.70;;
42144;SDS011;27813;43.516;11.890;2023-05-16T16:28:30;0.55;;;0.50;;
42144;SDS011;27813;43.516;11.890;2023-05-16T16:32:35;5.47;;;2.10;;
42144;SDS011;27813;43.516;11.890;2023-05-16T16:36:41;2.38;;;1.17;;
42144;SDS011;27813;43.516;11.890;2023-05-16T16:40:46;1.05;;;0.73;;
42144;SDS011;27813;43.516;11.890;2023-05-16T16:44:51;1.77;;;0.98;;
42144;SDS011;27813;43.516;11.890;2023-05-16T16:48:55;3.97;;;1.63;;
42144;SDS011;27813;43.516;11.890;2023-05-16T16:53:00;1.92;;;1.17;;
42144;SDS011;27813;43.516;11.890;2023-05-16T16:57:07;1.20;;;0.90;;
42144;SDS011;27813;43.516;11.890;2023-05-16T17:01:11;2.17;;;1.20;;
42144;SDS011;27813;43.516;11.890;2023-05-16T17:05:18;1.95;;;1.05;;
42144;SDS011;27813;43.516;11.890;2023-05-16T17:09:28;1.55;;;0.90;;
42144;SDS011;27813;43.516;11.890;2023-05-16T17:13:33;1.33;;;0.80;;
42144;SDS011;27813;43.516;11.890;2023-05-16T17:17:40;0.70;;;0.40;;
42144;SDS011;27813;43.516;11.890;2023-05-16T17:21:59;0.70;;;0.50;;
42144;SDS011;27813;43.516;11.890;2023-05-16T17:26:28;0.70;;;0.60;;
42144;SDS011;27813;43.516;11.890;2023-05-16T17:30:44;0.60;;;0.55;;
42144;SDS011;27813;43.516;11.890;2023-05-16T17:40:18;0.10;;;0.10;;
42144;SDS011;27813;43.516;11.890;2023-05-16T17:44:22;0.50;;;0.40;;
42144;SDS011;27813;43.516;11.890;2023-05-16T17:52:31;0.30;;;0.30;;
42144;SDS011;27813;43.516;11.890;2023-05-16T17:56:35;0.30;;;0.30;;
42144;SDS011;27813;43.516;11.890;2023-05-16T18:00:40;0.82;;;0.50;;
42144;SDS011;27813;43.516;11.890;2023-05-16T18:04:44;3.35;;;0.90;;
42144;SDS011;27813;43.516;11.890;2023-05-16T18:08:50;0.57;;;0.47;;
42144;SDS011;27813;43.516;11.890;2023-05-16T18:12:55;0.60;;;0.30;;
42144;SDS011;27813;43.516;11.890;2023-05-16T18:17:00;0.20;;;0.20;;
42144;SDS011;27813;43.516;11.890;2023-05-16T18:21:05;0.30;;;0.30;;
42144;SDS011;27813;43.516;11.890;2023-05-16T18:25:09;0.77;;;0.13;;
42144;SDS011;27813;43.516;11.890;2023-05-16T18:29:13;1.52;;;0.50;;
42144;SDS011;27813;43.516;11.890;2023-05-16T18:33:18;0.28;;;0.20;;
42144;SDS011;27813;43.516;11.890;2023-05-16T18:37:22;0.45;;;0.20;;
42144;SDS011;27813;43.516;11.890;2023-05-16T18:41:27;0.52;;;0.30;;
42144;SDS011;27813;43.516;11.890;2023-05-16T18:45:31;0.20;;;0.20;;
42144;SDS011;27813;43.516;11.890;2023-05-16T18:49:39;1.95;;;0.25;;
42144;SDS011;27813;43.516;11.890;2023-05-16T18:54:02;1.77;;;0.40;;
42144;SDS011;27813;43.516;11.890;2023-05-16T18:58:10;0.43;;;0.30;;
42144;SDS011;27813;43.516;11.890;2023-05-16T19:02:18;0.52;;;0.40;;
42144;SDS011;27813;43.516;11.890;2023-05-16T19:06:42;0.40;;;0.30;;
42144;SDS011;27813;43.516;11.890;2023-05-16T19:10:51;0.70;;;0.40;;
42144;SDS011;27813;43.516;11.890;2023-05-16T19:15:02;2.30;;;1.40;;
42144;SDS011;27813;43.516;11.890;2023-05-16T19:19:07;1.27;;;0.90;;
42144;SDS011;27813;43.516;11.890;2023-05-16T19:23:14;0.52;;;0.40;;
42144;SDS011;27813;43.516;11.890;2023-05-16T19:27:20;0.30;;;0.30;;
42144;SDS011;27813;43.516;11.890;2023-05-16T19:31:26;1.30;;;0.30;;
42144;SDS011;27813;43.516;11.890;2023-05-16T19:35:38;2.05;;;0.40;;
42144;SDS011;27813;43.516;11.890;2023-05-16T19:39:50;0.50;;;0.40;;
42144;SDS011;27813;43.516;11.890;2023-05-16T19:44:02;0.57;;;0.40;;
42144;SDS011;27813;43.516;11.890;2023-05-16T19:48:17;0.20;;;0.20;;
42144;SDS011;27813;43.516;11.890;2023-05-16T19:52:31;0.10;;;0.10;;
42144;SDS011;27813;43.516;11.890;2023-05-16T19:56:44;0.20;;;0.20;;
42144;SDS011;27813;43.516;11.890;2023-05-16T20:00:52;0.30;;;0.20;;
42144;SDS011;27813;43.516;11.890;2023-05-16T20:05:03;0.47;;;0.30;;
42144;SDS011;27813;43.516;11.890;2023-05-16T20:09:12;0.73;;;0.30;;
42144;SDS011;27813;43.516;11.890;2023-05-16T20:13:21;1.23;;;0.25;;
42144;SDS011;27813;43.516;11.890;2023-05-16T20:17:30;0.20;;;0.20;;
42144;SDS011;27813;43.516;11.890;2023-05-16T20:21:36;0.35;;;0.30;;
42144;SDS011;27813;43.516;11.890;2023-05-16T20:25:43;0.10;;;0.10;;
42144;SDS011;27813;43.516;11.890;2023-05-16T20:29:49;0.28;;;0.13;;
42144;SDS011;27813;43.516;11.890;2023-05-16T20:34:00;0.95;;;0.10;;
42144;SDS011;27813;43.516;11.890;2023-05-16T20:38:07;0.28;;;0.20;;
42144;SDS011;27813;43.516;11.890;2023-05-16T20:42:12;0.38;;;0.28;;
42144;SDS011;27813;43.516;11.890;2023-05-16T20:46:18;0.20;;;0.20;;
42144;SDS011;27813;43.516;11.890;2023-05-16T20:50:22;0.10;;;0.10;;
42144;SDS011;27813;43.516;11.890;2023-05-16T20:54:27;0.20;;;0.20;;
42144;SDS011;27813;43.516;11.890;2023-05-16T20:58:33;0.20;;;0.20;;
42144;SDS011;27813;43.516;11.890;2023-05-16T21:02:38;0.08;;;0.08;;
42144;SDS011;27813;43.516;11.890;2023-05-16T21:06:45;0.10;;;0.10;;
42144;SDS011;27813;43.516;11.890;2023-05-16T21:10:56;0.28;;;0.28;;
42144;SDS011;27813;43.516;11.890;2023-05-16T21:15:01;0.10;;;0.10;;
42144;SDS011;27813;43.516;11.890;2023-05-16T21:19:06;0.40;;;0.28;;
42144;SDS011;27813;43.516;11.890;2023-05-16T21:23:15;0.10;;;0.10;;
42144;SDS011;27813;43.516;11.890;2023-05-16T21:27:19;1.67;;;0.40;;
42144;SDS011;27813;43.516;11.890;2023-05-16T21:39:58;3.20;;;1.45;;
42144;SDS011;27813;43.516;11.890;2023-05-16T21:44:10;0.25;;;0.20;;
42144;SDS011;27813;43.516;11.890;2023-05-16T21:48:19;0.20;;;0.10;;
42144;SDS011;27813;43.516;11.890;2023-05-16T21:52:24;0.10;;;0.10;;
42144;SDS011;27813;43.516;11.890;2023-05-16T21:56:28;0.20;;;0.20;;
42144;SDS011;27813;43.516;11.890;2023-05-16T22:00:33;0.25;;;0.10;;
42144;SDS011;27813;43.516;11.890;2023-05-16T22:08:41;0.50;;;0.50;;
42144;SDS011;27813;43.516;11.890;2023-05-16T22:12:47;0.10;;;0.10;;
42144;SDS011;27813;43.516;11.890;2023-05-16T22:16:53;0.20;;;0.20;;
42144;SDS011;27813;43.516;11.890;2023-05-16T22:21:44;0.68;;;0.10;;
42144;SDS011;27813;43.516;11.890;2023-05-16T22:25:57;0.10;;;0.10;;
42144;SDS011;27813;43.516;11.890;2023-05-16T22:30:02;0.10;;;0.10;;
42144;SDS011;27813;43.516;11.890;2023-05-16T22:34:07;0.10;;;0.10;;
42144;SDS011;27813;43.516;11.890;2023-05-16T22:38:18;0.10;;;0.10;;
42144;SDS011;27813;43.516;11.890;2023-05-16T22:46:26;0.43;;;0.20;;
42144;SDS011;27813;43.516;11.890;2023-05-16T22:50:38;0.10;;;0.10;;
42144;SDS011;27813;43.516;11.890;2023-05-16T22:54:43;0.10;;;0.10;;
42144;SDS011;27813;43.516;11.890;2023-05-16T23:02:51;0.13;;;0.10;;
42144;SDS011;27813;43.516;11.890;2023-05-16T23:06:55;0.10;;;0.10;;
42144;SDS011;27813;43.516;11.890;2023-05-16T23:11:00;0.43;;;0.20;;
42144;SDS011;27813;43.516;11.890;2023-05-16T23:15:06;0.10;;;0.10;;
42144;SDS011;27813;43.516;11.890;2023-05-16T23:19:12;0.10;;;0.10;;
42144;SDS011;27813;43.516;11.890;2023-05-16T23:27:21;0.10;;;0.10;;
